sensor_id;sensor_type;location;lat;lon;timestamp;pressure;altitude;pressure_sealevel;temperature;humidity
35224;BME280;21367;51.930;8.112;2024-02-23T00:01:31;97970.75;;;6.97;100.00
35224;BME280;21367;51.930;8.112;2024-02-23T00:06:40;97933.84;;;6.72;100.00
35224;BME280;21367;51.930;8.112;2024-02-23T00:11:44;97959.03;;;6.47;100.00
35224;BME280;21367;51.930;8.112;2024-02-23T00:16:52;98001.47;;;6.42;100.00
35224;BME280;21367;51.930;8.112;2024-02-23T00:21:58;98038.78;;;6.34;100.00
35224;BME280;21367;51.930;8.112;2024-02-23T00:27:03;98064.09;;;6.23;100.00
35224;BME280;21367;51.930;8.112;2024-02-23T00:32:09;98102.31;;;6.20;100.00
35224;BME280;21367;51.930;8.112;2024-02-23T00:37:17;98131.09;;;6.13;100.00
35224;BME280;21367;51.930;8.112;2024-02-23T00:42:24;98135.00;;;5.94;100.00
35224;BME280;21367;51.930;8.112;2024-02-23T00:47:33;98162.03;;;5.45;100.00
35224;BME280;21367;51.930;8.112;2024-02-23T00:52:41;98177.84;;;5.30;100.00
35224;BME280;21367;51.930;8.112;2024-02-23T00:57:45;98220.72;;;5.12;100.00
35224;BME280;21367;51.930;8.112;2024-02-23T01:02:55;98247.66;;;5.04;100.00
35224;BME280;21367;51.930;8.112;2024-02-23T01:08:00;98245.19;;;5.07;100.00
35224;BME280;21367;51.930;8.112;2024-02-23T01:13:04;98256.06;;;5.01;100.00
35224;BME280;21367;51.930;8.112;2024-02-23T01:18:11;98265.97;;;4.89;100.00
35224;BME280;21367;51.930;8.112;2024-02-23T01:23:18;98286.13;;;4.81;100.00
35224;BME280;21367;51.930;8.112;2024-02-23T01:28:22;98313.19;;;4.79;100.00
35224;BME280;21367;51.930;8.112;2024-02-23T01:33:29;98306.72;;;4.91;100.00
35224;BME280;21367;51.930;8.112;2024-02-23T01:38:35;98309.25;;;4.89;100.00
35224;BME280;21367;51.930;8.112;2024-02-23T01:43:39;98315.66;;;4.76;100.00
35224;BME280;21367;51.930;8.112;2024-02-23T01:48:46;98324.44;;;4.87;100.00
35224;BME280;21367;51.930;8.112;2024-02-23T01:53:53;98320.06;;;4.82;100.00
35224;BME280;21367;51.930;8.112;2024-02-23T01:58:58;98347.88;;;4.76;100.00
35224;BME280;21367;51.930;8.112;2024-02-23T02:04:06;98352.69;;;4.65;100.00
35224;BME280;21367;51.930;8.112;2024-02-23T02:09:19;98368.75;;;4.62;100.00
35224;BME280;21367;51.930;8.112;2024-02-23T02:14:23;98362.88;;;4.65;100.00
35224;BME280;21367;51.930;8.112;2024-02-23T02:19:33;98357.81;;;4.67;100.00
35224;BME280;21367;51.930;8.112;2024-02-23T02:24:41;98373.41;;;4.79;100.00
35224;BME280;21367;51.930;8.112;2024-02-23T02:29:50;98384.06;;;4.64;100.00
35224;BME280;21367;51.930;8.112;2024-02-23T02:35:13;98392.50;;;4.63;100.00
35224;BME280;21367;51.930;8.112;2024-02-23T02:40:17;98401.47;;;4.80;100.00
35224;BME280;21367;51.930;8.112;2024-02-23T02:45:21;98413.75;;;4.95;100.00
35224;BME280;21367;51.930;8.112;2024-02-23T02:50:33;98413.44;;;4.84;100.00
35224;BME280;21367;51.930;8.112;2024-02-23T02:55:41;98421.59;;;5.03;100.00
35224;BME280;21367;51.930;8.112;2024-02-23T03:00:47;98418.25;;;5.05;100.00
35224;BME280;21367;51.930;8.112;2024-02-23T03:05:56;98417.41;;;5.05;100.00
35224;BME280;21367;51.930;8.112;2024-02-23T03:11:00;98419.22;;;5.10;100.00
35224;BME280;21367;51.930;8.112;2024-02-23T03:16:04;98426.31;;;5.21;100.00
35224;BME280;21367;51.930;8.112;2024-02-23T03:21:21;98428.97;;;5.25;100.00
35224;BME280;21367;51.930;8.112;2024-02-23T03:26:34;98433.03;;;5.19;100.00
35224;BME280;21367;51.930;8.112;2024-02-23T03:31:37;98434.09;;;5.27;100.00
35224;BME280;21367;51.930;8.112;2024-02-23T03:36:53;98462.72;;;5.18;100.00
35224;BME280;21367;51.930;8.112;2024-02-23T03:41:59;98464.53;;;5.22;100.00
35224;BME280;21367;51.930;8.112;2024-02-23T03:47:05;98475.31;;;5.14;100.00
35224;BME280;21367;51.930;8.112;2024-02-23T03:52:18;98478.25;;;5.27;100.00
35224;BME280;21367;51.930;8.112;2024-02-23T03:57:23;98466.88;;;5.15;100.00
35224;BME280;21367;51.930;8.112;2024-02-23T04:02:29;98476.16;;;5.13;100.00
35224;BME280;21367;51.930;8.112;2024-02-23T04:07:36;98478.84;;;5.17;100.00
35224;BME280;21367;51.930;8.112;2024-02-23T04:12:40;98498.63;;;4.97;100.00
35224;BME280;21367;51.930;8.112;2024-02-23T04:17:45;98481.66;;;4.96;100.00
35224;BME280;21367;51.930;8.112;2024-02-23T04:22:52;98487.88;;;5.07;100.00
35224;BME280;21367;51.930;8.112;2024-02-23T04:27:55;98496.00;;;4.94;100.00
35224;BME280;21367;51.930;8.112;2024-02-23T04:32:59;98501.19;;;4.97;100.00
35224;BME280;21367;51.930;8.112;2024-02-23T04:38:06;98503.81;;;5.00;100.00
35224;BME280;21367;51.930;8.112;2024-02-23T04:43:13;98506.25;;;4.97;100.00
35224;BME280;21367;51.930;8.112;2024-02-23T04:48:17;98520.75;;;4.98;100.00
35224;BME280;21367;51.930;8.112;2024-02-23T04:53:25;98505.53;;;5.01;100.00
35224;BME280;21367;51.930;8.112;2024-02-23T04:58:35;98523.03;;;4.91;100.00
35224;BME280;21367;51.930;8.112;2024-02-23T05:03:40;98533.31;;;4.94;100.00
35224;BME280;21367;51.930;8.112;2024-02-23T05:08:48;98533.88;;;5.14;100.00
35224;BME280;21367;51.930;8.112;2024-02-23T05:13:52;98550.03;;;5.14;100.00
35224;BME280;21367;51.930;8.112;2024-02-23T05:18:57;98535.75;;;5.19;100.00
35224;BME280;21367;51.930;8.112;2024-02-23T05:24:04;98550.22;;;5.20;100.00
35224;BME280;21367;51.930;8.112;2024-02-23T05:29:14;98545.91;;;5.18;100.00
35224;BME280;21367;51.930;8.112;2024-02-23T05:34:20;98538.44;;;5.24;100.00
35224;BME280;21367;51.930;8.112;2024-02-23T05:39:28;98567.03;;;5.15;100.00
35224;BME280;21367;51.930;8.112;2024-02-23T05:44:32;98556.25;;;5.24;100.00
35224;BME280;21367;51.930;8.112;2024-02-23T05:49:39;98561.19;;;5.19;100.00
35224;BME280;21367;51.930;8.112;2024-02-23T05:54:46;98556.25;;;5.24;100.00
35224;BME280;21367;51.930;8.112;2024-02-23T05:59:50;98568.34;;;5.31;100.00
35224;BME280;21367;51.930;8.112;2024-02-23T06:04:53;98552.09;;;5.27;100.00
35224;BME280;21367;51.930;8.112;2024-02-23T06:10:00;98563.06;;;5.25;100.00
35224;BME280;21367;51.930;8.112;2024-02-23T06:15:05;98565.06;;;5.05;100.00
35224;BME280;21367;51.930;8.112;2024-02-23T06:20:10;98576.22;;;5.10;100.00
35224;BME280;21367;51.930;8.112;2024-02-23T06:25:26;98573.09;;;4.90;100.00
35224;BME280;21367;51.930;8.112;2024-02-23T06:30:32;98586.84;;;4.97;100.00
35224;BME280;21367;51.930;8.112;2024-02-23T06:35:37;98588.38;;;4.92;100.00
35224;BME280;21367;51.930;8.112;2024-02-23T06:40:43;98580.06;;;4.96;100.00
35224;BME280;21367;51.930;8.112;2024-02-23T06:45:48;98594.94;;;4.83;100.00
35224;BME280;21367;51.930;8.112;2024-02-23T06:50:52;98603.72;;;4.93;100.00
35224;BME280;21367;51.930;8.112;2024-02-23T06:55:58;98603.63;;;4.90;100.00
